createdAt,value
2019-05-11T00:00:44.920Z,9.90
2019-05-11T00:03:17.661Z,9.90
2019-05-11T00:05:50.498Z,9.90
2019-05-11T00:08:23.363Z,9.80
2019-05-11T00:10:57.312Z,9.90
2019-05-11T00:13:30.077Z,9.90
2019-05-11T00:16:03.826Z,9.80
2019-05-11T00:18:36.553Z,9.70
2019-05-11T00:21:09.206Z,9.70
2019-05-11T00:23:41.904Z,9.60
2019-05-11T00:26:16.522Z,9.60
2019-05-11T00:28:49.250Z,9.40
2019-05-11T00:31:21.971Z,9.30
2019-05-11T00:33:54.571Z,9.30
2019-05-11T00:36:27.209Z,9.30
2019-05-11T00:38:59.949Z,9.20
2019-05-11T00:41:34.426Z,9.10
2019-05-11T00:44:07.033Z,9.10
2019-05-11T00:46:39.874Z,9.10
2019-05-11T00:49:14.272Z,9.10
2019-05-11T00:51:46.908Z,9.10
2019-05-11T00:54:19.571Z,9.10
2019-05-11T00:56:52.213Z,9.20
2019-05-11T00:59:24.848Z,9.30
2019-05-11T01:01:58.657Z,9.30
2019-05-11T01:04:31.226Z,9.30
2019-05-11T01:07:05.697Z,9.30
2019-05-11T01:09:40.158Z,9.30
2019-05-11T01:12:12.813Z,9.30
2019-05-11T01:14:45.461Z,9.30
2019-05-11T01:17:19.416Z,9.30
2019-05-11T01:19:53.099Z,9.40
2019-05-11T01:22:26.778Z,9.30
2019-05-11T01:24:59.457Z,9.30
2019-05-11T01:27:32.172Z,9.20
2019-05-11T01:30:04.956Z,9.10
2019-05-11T01:32:37.724Z,9.10
2019-05-11T01:35:11.389Z,9.10
2019-05-11T01:37:44.036Z,9.00
2019-05-11T01:40:17.965Z,9.10
2019-05-11T01:42:50.648Z,9.10
2019-05-11T01:45:24.602Z,9.10
2019-05-11T01:47:57.379Z,9.10
2019-05-11T01:50:30.038Z,9.20
2019-05-11T01:53:03.984Z,9.20
2019-05-11T01:55:38.465Z,9.20
2019-05-11T01:58:12.860Z,9.20
2019-05-11T02:00:47.252Z,9.30
2019-05-11T02:03:19.845Z,9.20
2019-05-11T02:05:52.409Z,9.20
2019-05-11T02:08:26.953Z,9.20
2019-05-11T02:11:14.847Z,9.20
2019-05-11T02:13:34.589Z,9.20
2019-05-11T02:16:07.448Z,9.20
2019-05-11T02:18:42.081Z,9.20
2019-05-11T02:21:14.667Z,9.20
2019-05-11T02:23:49.089Z,9.20
2019-05-11T02:26:23.038Z,9.10
2019-05-11T02:28:55.763Z,9.20
2019-05-11T02:31:28.370Z,9.20
2019-05-11T02:34:01.026Z,9.10
2019-05-11T02:36:34.730Z,9.20
2019-05-11T02:39:09.143Z,9.20
2019-05-11T02:41:42.996Z,9.20
2019-05-11T02:44:15.835Z,9.20
2019-05-11T02:46:49.491Z,9.20
2019-05-11T02:49:22.232Z,9.20
2019-05-11T02:51:55.513Z,9.20
2019-05-11T02:54:28.213Z,9.20
2019-05-11T02:57:00.909Z,9.20
2019-05-11T02:59:33.629Z,9.10
2019-05-11T03:02:06.223Z,9.10
2019-05-11T03:04:39.040Z,9.10
2019-05-11T03:07:12.819Z,9.10
2019-05-11T03:09:45.528Z,9.10
2019-05-11T03:12:18.174Z,9.10
2019-05-11T03:14:52.184Z,9.10
2019-05-11T03:17:29.344Z,9.10
2019-05-11T03:20:03.247Z,9.10
2019-05-11T03:22:37.065Z,9.10
2019-05-11T03:25:09.709Z,9.10
2019-05-11T03:27:42.524Z,9.10
2019-05-11T03:30:15.389Z,9.00
2019-05-11T03:32:48.200Z,9.00
2019-05-11T03:35:22.634Z,9.00
2019-05-11T03:37:55.332Z,9.10
2019-05-11T03:40:29.239Z,9.10
2019-05-11T03:43:01.938Z,9.10
2019-05-11T03:45:34.711Z,9.10
2019-05-11T03:48:07.464Z,9.10
2019-05-11T03:50:40.321Z,9.10
2019-05-11T03:53:13.038Z,9.10
2019-05-11T03:55:45.823Z,9.10
2019-05-11T03:58:18.447Z,9.10
2019-05-11T04:00:51.105Z,9.20
2019-05-11T04:03:23.663Z,9.10
2019-05-11T04:05:56.544Z,9.20
2019-05-11T04:08:29.302Z,9.10
2019-05-11T04:11:03.056Z,9.10
2019-05-11T04:13:35.694Z,9.10
2019-05-11T04:16:08.436Z,9.20
2019-05-11T04:18:41.189Z,9.20
2019-05-11T04:21:13.820Z,9.20
2019-05-11T04:23:46.461Z,9.20
2019-05-11T04:26:19.099Z,9.30
2019-05-11T04:28:51.795Z,9.30
2019-05-11T04:31:26.491Z,9.30
2019-05-11T04:33:59.247Z,9.40
2019-05-11T04:36:32.152Z,9.50
2019-05-11T04:39:05.866Z,9.50
2019-05-11T04:41:38.584Z,9.50
2019-05-11T04:44:11.130Z,9.50
2019-05-11T04:46:43.877Z,9.60
2019-05-11T04:49:16.528Z,9.50
2019-05-11T04:51:51.331Z,9.60
2019-05-11T04:54:25.142Z,9.60
2019-05-11T04:56:57.924Z,9.50
2019-05-11T04:59:30.667Z,9.60
2019-05-11T05:02:03.409Z,9.60
2019-05-11T05:04:36.117Z,9.60
2019-05-11T05:07:10.675Z,9.60
2019-05-11T05:09:44.763Z,9.70
2019-05-11T05:12:17.639Z,9.70
2019-05-11T05:14:50.277Z,9.80
2019-05-11T05:17:25.241Z,9.70
2019-05-11T05:19:57.931Z,9.70
2019-05-11T05:22:31.636Z,9.70
2019-05-11T05:25:04.449Z,9.70
2019-05-11T05:27:37.147Z,9.70
2019-05-11T05:30:11.373Z,9.70
2019-05-11T05:32:44.303Z,9.70
2019-05-11T05:35:18.179Z,9.80
2019-05-11T05:37:50.845Z,9.80
2019-05-11T05:40:23.713Z,9.80
2019-05-11T05:42:58.291Z,9.90
2019-05-11T05:45:31.110Z,9.90
2019-05-11T05:48:03.758Z,9.90
2019-05-11T05:50:37.547Z,9.90
2019-05-11T05:53:10.242Z,9.80
2019-05-11T05:55:44.777Z,9.90
2019-05-11T05:58:24.974Z,9.90
2019-05-11T06:00:57.652Z,9.90
2019-05-11T06:03:31.505Z,9.90
2019-05-11T06:06:04.208Z,9.90
2019-05-11T06:08:38.092Z,9.90
2019-05-11T06:11:12.641Z,9.90
2019-05-11T06:13:46.427Z,9.90
2019-05-11T06:16:21.373Z,9.90
2019-05-11T06:18:53.998Z,9.80
2019-05-11T06:21:26.761Z,9.80
2019-05-11T06:24:05.839Z,9.80
2019-05-11T06:26:34.048Z,9.80
2019-05-11T06:29:06.744Z,9.90
2019-05-11T06:31:41.623Z,9.90
2019-05-11T06:34:14.242Z,9.80
2019-05-11T06:36:47.003Z,9.80
2019-05-11T06:39:19.740Z,9.90
2019-05-11T06:41:52.343Z,9.90
2019-05-11T06:44:24.993Z,9.90
2019-05-11T06:46:57.647Z,10.00
2019-05-11T06:49:32.241Z,10.00
2019-05-11T06:52:06.287Z,10.00
2019-05-11T06:54:39.047Z,10.00
2019-05-11T06:57:11.642Z,10.00
2019-05-11T06:59:44.269Z,10.10
2019-05-11T07:02:16.982Z,10.10
2019-05-11T07:04:49.642Z,10.00
2019-05-11T07:07:22.449Z,10.00
2019-05-11T07:09:55.037Z,10.00
2019-05-11T07:12:28.742Z,10.00
2019-05-11T07:15:02.723Z,10.00
2019-05-11T07:17:36.786Z,10.00
2019-05-11T07:20:09.545Z,10.00
2019-05-11T07:22:43.494Z,10.00
2019-05-11T07:25:16.156Z,10.00
2019-05-11T07:27:49.103Z,10.00
2019-05-11T07:30:25.063Z,10.00
2019-05-11T07:32:58.114Z,10.00
2019-05-11T07:35:32.783Z,10.00
2019-05-11T07:38:05.527Z,10.00
2019-05-11T07:40:38.585Z,10.00
2019-05-11T07:43:11.463Z,10.00
2019-05-11T07:45:45.023Z,10.00
2019-05-11T07:48:18.653Z,10.10
2019-05-11T07:50:51.609Z,10.20
2019-05-11T07:53:24.268Z,10.20
2019-05-11T07:55:57.709Z,10.20
2019-05-11T07:58:31.803Z,10.20
2019-05-11T08:01:08.666Z,10.20
2019-05-11T08:03:41.019Z,10.30
2019-05-11T08:06:13.456Z,10.30
2019-05-11T08:08:45.966Z,10.40
2019-05-11T08:11:18.675Z,10.40
2019-05-11T08:13:51.290Z,10.40
2019-05-11T08:16:23.888Z,10.50
2019-05-11T08:18:58.866Z,10.50
2019-05-11T08:21:32.320Z,10.50
2019-05-11T08:24:04.948Z,10.60
2019-05-11T08:26:38.657Z,10.60
2019-05-11T08:29:12.728Z,10.60
2019-05-11T08:31:48.780Z,10.60
2019-05-11T08:34:21.763Z,10.60
2019-05-11T08:36:58.399Z,10.60
2019-05-11T08:39:30.977Z,10.40
2019-05-11T08:42:03.970Z,10.30
2019-05-11T08:44:38.024Z,10.20
2019-05-11T08:47:10.993Z,10.10
2019-05-11T08:49:43.677Z,10.00
2019-05-11T08:52:18.508Z,10.10
2019-05-11T08:54:50.906Z,10.20
2019-05-11T08:57:23.509Z,10.30
2019-05-11T08:59:57.928Z,10.30
2019-05-11T09:02:30.818Z,10.30
2019-05-11T09:05:03.428Z,10.30
2019-05-11T09:07:38.410Z,10.40
2019-05-11T09:10:11.169Z,10.40
2019-05-11T09:12:45.020Z,10.40
2019-05-11T09:15:32.696Z,10.40
2019-05-11T09:17:51.944Z,10.50
2019-05-11T09:20:24.432Z,10.60
2019-05-11T09:22:58.880Z,10.70
2019-05-11T09:25:31.633Z,10.90
2019-05-11T09:28:04.150Z,10.90
2019-05-11T09:30:37.998Z,11.00
2019-05-11T09:33:10.791Z,11.10
2019-05-11T09:35:50.011Z,11.20
2019-05-11T09:38:18.570Z,11.20
2019-05-11T09:40:51.314Z,11.20
2019-05-11T09:43:23.890Z,11.20
2019-05-11T09:45:58.221Z,11.10
2019-05-11T09:48:33.614Z,11.30
2019-05-11T09:51:07.859Z,11.40
2019-05-11T09:53:40.518Z,11.30
2019-05-11T09:56:12.993Z,11.30
2019-05-11T09:58:47.753Z,11.10
2019-05-11T10:01:19.879Z,10.90
2019-05-11T10:03:52.478Z,11.00
2019-05-11T10:06:28.055Z,11.10
2019-05-11T10:09:00.281Z,11.20
2019-05-11T10:11:32.718Z,11.30
2019-05-11T10:14:05.237Z,11.50
2019-05-11T10:16:40.766Z,11.50
2019-05-11T10:19:13.313Z,11.40
2019-05-11T10:21:48.508Z,11.60
2019-05-11T10:24:20.405Z,11.60
2019-05-11T10:26:53.059Z,11.70
2019-05-11T10:29:28.878Z,11.90
2019-05-11T10:32:03.500Z,11.90
2019-05-11T10:34:38.443Z,11.90
2019-05-11T10:37:10.568Z,12.00
2019-05-11T10:39:43.158Z,11.90
2019-05-11T10:42:17.967Z,12.00
2019-05-11T10:44:51.847Z,12.10
2019-05-11T10:47:24.277Z,12.10
2019-05-11T10:49:57.877Z,12.00
2019-05-11T10:52:30.529Z,12.10
2019-05-11T10:55:03.313Z,12.20
2019-05-11T10:57:38.427Z,12.10
2019-05-11T11:00:10.772Z,12.00
2019-05-11T11:02:43.297Z,12.00
2019-05-11T11:05:18.538Z,12.20
2019-05-11T11:07:50.528Z,12.30
2019-05-11T11:10:22.994Z,12.40
2019-05-11T11:12:57.689Z,12.40
2019-05-11T11:15:30.048Z,12.50
2019-05-11T11:18:04.549Z,12.70
2019-05-11T11:20:38.425Z,12.90
2019-05-11T11:23:13.247Z,12.90
2019-05-11T11:25:47.987Z,13.10
2019-05-11T11:28:21.615Z,13.00
2019-05-11T11:30:54.466Z,13.00
2019-05-11T11:33:28.299Z,13.00
2019-05-11T11:36:02.938Z,13.00
2019-05-11T11:38:37.575Z,13.20
2019-05-11T11:41:12.227Z,13.40
2019-05-11T11:43:44.906Z,13.60
2019-05-11T11:46:18.882Z,13.90
2019-05-11T11:48:53.620Z,14.10
2019-05-11T11:51:28.683Z,14.10
2019-05-11T11:54:01.526Z,14.70
2019-05-11T11:56:37.745Z,15.40
2019-05-11T11:59:09.868Z,16.10
2019-05-11T12:01:44.308Z,15.90
2019-05-11T12:04:18.846Z,15.60
2019-05-11T12:06:52.871Z,15.10
2019-05-11T12:09:45.080Z,15.10
2019-05-11T12:12:18.585Z,14.90
2019-05-11T12:14:51.437Z,15.00
2019-05-11T12:17:24.087Z,15.20
2019-05-11T12:19:58.615Z,15.70
2019-05-11T12:22:31.486Z,16.00
2019-05-11T12:25:04.817Z,15.80
2019-05-11T12:27:39.402Z,15.30
2019-05-11T12:30:12.193Z,15.20
2019-05-11T12:32:48.742Z,14.80
2019-05-11T12:35:21.806Z,14.70
2019-05-11T12:37:54.468Z,14.90
2019-05-11T12:40:28.295Z,15.30
2019-05-11T12:43:02.562Z,15.80
2019-05-11T12:45:37.507Z,16.30
2019-05-11T12:48:10.076Z,16.70
2019-05-11T12:50:42.891Z,17.00
2019-05-11T12:53:15.752Z,17.10
2019-05-11T12:55:50.243Z,17.40
2019-05-11T12:58:23.010Z,17.50
2019-05-11T13:00:55.648Z,17.30
2019-05-11T13:03:30.255Z,16.90
2019-05-11T13:06:02.853Z,17.00
2019-05-11T13:08:38.730Z,17.20
2019-05-11T13:11:11.257Z,17.00
2019-05-11T13:13:44.176Z,17.50
2019-05-11T13:16:18.701Z,17.30
2019-05-11T13:18:51.678Z,17.20
2019-05-11T13:21:26.099Z,16.80
2019-05-11T13:23:59.032Z,16.70
2019-05-11T13:26:31.699Z,16.30
2019-05-11T13:29:04.384Z,15.70
2019-05-11T13:31:38.380Z,15.00
2019-05-11T13:34:12.562Z,14.80
2019-05-11T13:36:48.749Z,14.90
2019-05-11T13:39:22.249Z,14.60
2019-05-11T13:41:55.053Z,14.60
2019-05-11T13:44:28.106Z,14.50
2019-05-11T13:47:00.942Z,14.50
2019-05-11T13:49:33.770Z,14.50
2019-05-11T13:52:08.446Z,14.40
2019-05-11T13:54:42.784Z,14.50
2019-05-11T13:57:15.433Z,14.50
2019-05-11T13:59:48.150Z,14.30
2019-05-11T14:02:20.785Z,14.20
2019-05-11T14:04:53.338Z,14.00
2019-05-11T14:07:27.810Z,14.10
2019-05-11T14:10:00.468Z,14.10
2019-05-11T14:12:33.153Z,14.50
2019-05-11T14:15:10.872Z,14.80
2019-05-11T14:17:43.484Z,15.40
2019-05-11T14:20:18.938Z,15.50
2019-05-11T14:22:51.654Z,15.40
2019-05-11T14:25:24.553Z,15.10
2019-05-11T14:27:59.479Z,15.30
2019-05-11T14:30:31.847Z,15.60
2019-05-11T14:33:08.224Z,16.10
2019-05-11T14:35:40.582Z,17.20
2019-05-11T14:38:13.196Z,17.90
2019-05-11T14:40:47.902Z,18.10
2019-05-11T14:43:20.398Z,18.00
2019-05-11T14:45:53.198Z,17.80
2019-05-11T14:48:30.208Z,17.10
2019-05-11T14:51:02.547Z,17.00
2019-05-11T14:53:37.640Z,17.60
2019-05-11T14:56:10.034Z,18.30
2019-05-11T14:58:42.873Z,18.40
2019-05-11T15:01:18.066Z,18.50
2019-05-11T15:03:50.230Z,18.70
2019-05-11T15:06:22.941Z,19.00
2019-05-11T15:08:55.599Z,18.90
2019-05-11T15:11:28.470Z,19.50
2019-05-11T15:14:02.745Z,19.80
2019-05-11T15:16:35.451Z,20.30
2019-05-11T15:19:09.298Z,20.70
2019-05-11T15:21:41.924Z,20.70
2019-05-11T15:24:18.287Z,20.30
2019-05-11T15:26:50.361Z,20.40
2019-05-11T15:29:23.114Z,20.30
2019-05-11T15:31:57.917Z,20.20
2019-05-11T15:34:30.554Z,20.00
2019-05-11T15:37:04.252Z,19.20
2019-05-11T15:39:38.746Z,17.90
2019-05-11T15:42:16.834Z,17.70
2019-05-11T15:44:49.116Z,17.70
2019-05-11T15:47:23.870Z,17.00
2019-05-11T15:49:57.936Z,16.70
2019-05-11T15:52:30.591Z,17.10
2019-05-11T15:55:03.535Z,17.30
2019-05-11T15:57:38.206Z,16.90
2019-05-11T16:00:13.485Z,16.50
2019-05-11T16:02:48.980Z,16.10
2019-05-11T16:05:21.211Z,15.80
2019-05-11T16:07:55.796Z,15.70
2019-05-11T16:10:28.634Z,15.30
2019-05-11T16:13:01.229Z,15.20
2019-05-11T16:15:35.594Z,15.30
2019-05-11T16:18:08.510Z,15.30
2019-05-11T16:20:41.408Z,15.40
2019-05-11T16:23:14.238Z,15.20
2019-05-11T16:25:48.909Z,15.10
2019-05-11T16:28:21.631Z,15.10
2019-05-11T16:30:54.330Z,15.40
2019-05-11T16:33:27.145Z,15.90
2019-05-11T16:36:00.855Z,16.00
2019-05-11T16:38:34.806Z,15.60
2019-05-11T16:41:09.199Z,15.20
2019-05-11T16:43:44.080Z,14.80
2019-05-11T16:46:17.747Z,14.70
2019-05-11T16:48:50.689Z,14.50
2019-05-11T16:51:23.376Z,14.50
2019-05-11T16:53:56.073Z,14.40
2019-05-11T16:56:28.725Z,14.50
2019-05-11T16:59:01.384Z,15.50
2019-05-11T17:01:34.521Z,16.70
2019-05-11T17:04:07.147Z,17.00
2019-05-11T17:06:39.873Z,17.00
2019-05-11T17:09:12.548Z,17.30
2019-05-11T17:11:45.276Z,16.90
2019-05-11T17:14:18.760Z,16.90
2019-05-11T17:16:52.736Z,16.70
2019-05-11T17:19:39.463Z,16.30
2019-05-11T17:22:01.027Z,16.60
2019-05-11T17:24:34.205Z,16.40
2019-05-11T17:27:08.888Z,15.80
2019-05-11T17:29:41.939Z,15.40
2019-05-11T17:32:14.602Z,15.30
2019-05-11T17:34:49.479Z,15.00
2019-05-11T17:37:22.205Z,14.80
2019-05-11T17:39:58.502Z,14.60
2019-05-11T17:42:30.717Z,14.50
2019-05-11T17:45:03.649Z,14.40
2019-05-11T17:47:38.674Z,14.30
2019-05-11T17:50:15.613Z,14.30
2019-05-11T17:52:48.497Z,14.20
2019-05-11T17:55:21.161Z,14.20
2019-05-11T17:57:54.238Z,14.50
2019-05-11T18:00:28.462Z,14.50
2019-05-11T18:03:01.226Z,14.70
2019-05-11T18:05:34.042Z,15.40
2019-05-11T18:08:08.743Z,15.70
2019-05-11T18:10:41.781Z,15.60
2019-05-11T18:13:14.471Z,15.50
2019-05-11T18:15:49.232Z,15.50
2019-05-11T18:18:24.028Z,15.40
2019-05-11T18:20:58.046Z,15.00
2019-05-11T18:23:32.861Z,14.80
2019-05-11T18:26:08.842Z,14.70
2019-05-11T18:28:41.311Z,14.60
2019-05-11T18:31:14.006Z,14.30
2019-05-11T18:33:48.685Z,14.10
2019-05-11T18:36:21.736Z,13.80
2019-05-11T18:38:54.461Z,13.70
2019-05-11T18:41:28.305Z,13.40
2019-05-11T18:44:01.170Z,13.20
2019-05-11T18:46:34.180Z,13.10
2019-05-11T18:49:06.811Z,12.90
2019-05-11T18:51:39.521Z,12.70
2019-05-11T18:54:12.198Z,12.60
2019-05-11T18:56:44.971Z,12.40
2019-05-11T18:59:19.513Z,12.20
2019-05-11T19:01:53.353Z,12.10
2019-05-11T19:04:26.137Z,11.90
2019-05-11T19:07:13.202Z,11.70
2019-05-11T19:09:37.949Z,11.60
2019-05-11T19:12:12.810Z,11.50
2019-05-11T19:14:47.866Z,11.40
2019-05-11T19:17:22.048Z,11.30
2019-05-11T19:19:54.847Z,11.30
2019-05-11T19:22:28.941Z,11.30
2019-05-11T19:25:01.764Z,11.30
2019-05-11T19:27:37.318Z,11.20
2019-05-11T19:30:11.441Z,11.00
2019-05-11T19:32:44.146Z,10.90
2019-05-11T19:35:17.573Z,10.90
2019-05-11T19:37:51.525Z,10.80
2019-05-11T19:40:25.409Z,10.70
2019-05-11T19:42:59.282Z,10.60
2019-05-11T19:45:32.221Z,10.50
2019-05-11T19:48:05.104Z,10.50
2019-05-11T19:50:40.824Z,10.40
2019-05-11T19:53:14.556Z,10.30
2019-05-11T19:55:47.902Z,10.20
2019-05-11T19:58:21.831Z,10.10
2019-05-11T20:00:54.688Z,10.00
2019-05-11T20:03:29.362Z,9.90
2019-05-11T20:06:03.910Z,9.90
2019-05-11T20:08:36.621Z,9.80
2019-05-11T20:11:09.422Z,9.80
2019-05-11T20:13:42.162Z,9.80
2019-05-11T20:16:14.834Z,9.80
2019-05-11T20:18:48.663Z,9.80
2019-05-11T20:21:23.076Z,9.80
2019-05-11T20:23:57.826Z,9.80
2019-05-11T20:26:30.395Z,9.80
2019-05-11T20:29:03.237Z,9.80
2019-05-11T20:31:36.044Z,9.90
2019-05-11T20:34:08.729Z,9.90
2019-05-11T20:36:43.299Z,9.90
2019-05-11T20:39:17.957Z,9.80
2019-05-11T20:41:50.975Z,9.90
2019-05-11T20:44:25.019Z,9.90
2019-05-11T20:46:58.153Z,9.80
2019-05-11T20:49:30.960Z,9.70
2019-05-11T20:52:03.830Z,9.70
2019-05-11T20:54:38.619Z,9.60
2019-05-11T20:57:12.742Z,9.50
2019-05-11T20:59:45.355Z,9.50
2019-05-11T21:02:18.370Z,9.50
2019-05-11T21:04:51.302Z,9.50
2019-05-11T21:07:23.972Z,9.60
2019-05-11T21:09:57.749Z,9.60
2019-05-11T21:12:30.862Z,9.60
2019-05-11T21:15:05.153Z,9.50
2019-05-11T21:17:38.289Z,9.40
2019-05-11T21:20:11.121Z,9.30
2019-05-11T21:22:44.104Z,9.30
2019-05-11T21:25:18.170Z,9.20
2019-05-11T21:27:51.109Z,9.20
2019-05-11T21:30:23.823Z,9.10
2019-05-11T21:32:58.200Z,9.00
2019-05-11T21:35:32.721Z,9.00
2019-05-11T21:38:05.583Z,9.00
2019-05-11T21:40:48.549Z,9.00
2019-05-11T21:43:21.240Z,9.00
2019-05-11T21:45:53.889Z,8.90
2019-05-11T21:48:28.068Z,8.90
2019-05-11T21:51:00.903Z,8.80
2019-05-11T21:53:33.508Z,8.70
2019-05-11T21:56:08.137Z,8.70
2019-05-11T21:58:42.584Z,8.60
2019-05-11T22:01:15.499Z,8.60
2019-05-11T22:03:48.388Z,8.60
2019-05-11T22:06:21.189Z,8.50
2019-05-11T22:08:53.941Z,8.50
2019-05-11T22:11:28.478Z,8.40
2019-05-11T22:14:01.290Z,8.40
2019-05-11T22:16:33.892Z,8.40
2019-05-11T22:19:08.658Z,8.30
2019-05-11T22:21:42.429Z,8.30
2019-05-11T22:24:17.980Z,8.30
2019-05-11T22:26:50.850Z,8.30
2019-05-11T22:29:23.634Z,8.20
2019-05-11T22:31:58.137Z,8.20
2019-05-11T22:34:31.090Z,8.20
2019-05-11T22:37:03.747Z,8.10
2019-05-11T22:39:37.760Z,8.00
2019-05-11T22:42:10.630Z,8.00
2019-05-11T22:44:43.690Z,8.00
2019-05-11T22:47:18.062Z,8.00
2019-05-11T22:49:50.744Z,7.90
2019-05-11T22:52:33.929Z,7.90
2019-05-11T22:54:59.019Z,7.80
2019-05-11T22:57:31.926Z,7.80
2019-05-11T23:00:08.144Z,7.70
2019-05-11T23:02:42.946Z,7.80
2019-05-11T23:05:15.689Z,7.70
2019-05-11T23:07:49.461Z,7.70
2019-05-11T23:10:23.274Z,7.70
2019-05-11T23:12:57.760Z,7.60
2019-05-11T23:15:30.462Z,7.60
2019-05-11T23:18:03.530Z,7.60
2019-05-11T23:20:38.091Z,7.50
2019-05-11T23:23:10.886Z,7.50
2019-05-11T23:25:43.681Z,7.50
2019-05-11T23:28:18.322Z,7.40
2019-05-11T23:30:50.885Z,7.30
2019-05-11T23:33:27.705Z,7.30
2019-05-11T23:36:00.117Z,7.10
2019-05-11T23:38:32.765Z,7.10
2019-05-11T23:41:08.133Z,7.00
2019-05-11T23:43:41.862Z,6.90
2019-05-11T23:46:14.586Z,6.80
2019-05-11T23:48:48.698Z,6.70
2019-05-11T23:51:21.499Z,6.50
2019-05-11T23:53:54.131Z,6.40
2019-05-11T23:56:28.204Z,6.30
2019-05-11T23:59:02.235Z,6.20
